Time;durP1;ratioP1;P1;durP2;ratioP2;P2;SDS_P1;SDS_P2;PMS_P1;PMS_P2;Temp;Humidity;BMP_temperature;BMP_pressure;BME280_temperature;BME280_humidity;BME280_pressure;Samples;Min_cycle;Max_cycle;Signal;HPM_P1;HPM_P2
2022/10/29 00:01:37;;;;;;;15.90;7.18;;;13.80;40.70;;;;;;7360093;19;20015;-68
2022/10/29 00:04:07;;;;;;;21.33;8.05;;;13.80;43.70;;;;;;7385188;19;20010;-68
2022/10/29 00:06:37;;;;;;;16.15;7.70;;;13.90;43.60;;;;;;7356358;19;20379;-68
2022/10/29 00:09:11;;;;;;;13.05;7.43;;;13.80;42.80;;;;;;7359837;19;20010;-67
2022/10/29 00:11:41;;;;;;;17.90;7.57;;;13.80;43.90;;;;;;7358354;19;20010;-67
2022/10/29 00:14:10;;;;;;;20.17;7.95;;;13.80;44.60;;;;;;7362931;19;20011;-68
2022/10/29 00:16:41;;;;;;;16.13;7.75;;;13.70;44.00;;;;;;7357973;19;20019;-67
2022/10/29 00:19:11;;;;;;;14.00;7.28;;;13.60;44.50;;;;;;7381194;19;20014;-67
2022/10/29 00:21:40;;;;;;;19.50;8.32;;;13.60;45.20;;;;;;7357751;19;20039;-67
2022/10/29 00:24:13;;;;;;;16.33;8.38;;;13.70;46.20;;;;;;7361228;19;20010;-68
2022/10/29 00:26:43;;;;;;;21.02;8.55;;;13.90;45.90;;;;;;7357227;19;20505;-68
2022/10/29 00:29:13;;;;;;;15.90;8.13;;;13.80;44.80;;;;;;7361507;19;20014;-68
2022/10/29 00:31:43;;;;;;;18.67;8.25;;;13.80;44.70;;;;;;7358797;19;20057;-68
2022/10/29 00:34:13;;;;;;;18.73;8.60;;;13.80;45.20;;;;;;7383495;19;20093;-68
2022/10/29 00:36:42;;;;;;;23.70;8.60;;;13.80;46.00;;;;;;7356168;19;20474;-68
2022/10/29 00:39:17;;;;;;;15.10;8.27;;;14.00;46.20;;;;;;7359047;19;20039;-68
2022/10/29 00:41:46;;;;;;;;;;;14.00;46.10;;;;;;7358673;19;20058;-68
2022/10/29 00:44:37;;;;;;;13.27;8.13;;;14.00;46.20;;;;;;7362695;19;20376;-68
2022/10/29 00:47:19;;;;;;;17.13;8.23;;;13.90;46.30;;;;;;7358755;19;20018;-68
2022/10/29 00:49:51;;;;;;;25.48;7.93;;;13.90;46.40;;;;;;7359221;19;20017;-68
2022/10/29 00:52:23;;;;;;;19.23;8.68;;;13.90;46.90;;;;;;7358668;19;20544;-69
2022/10/29 00:54:57;;;;;;;21.42;8.85;;;14.00;46.80;;;;;;7379145;19;20363;-68
2022/10/29 00:57:31;;;;;;;17.08;9.68;;;14.00;47.00;;;;;;7356772;19;20020;-68
2022/10/29 01:00:01;;;;;;;21.05;8.85;;;14.00;47.10;;;;;;7359747;19;20014;-68
2022/10/29 01:02:33;;;;;;;24.42;9.52;;;14.10;46.90;;;;;;7358330;19;20475;-68
2022/10/29 01:05:04;;;;;;;17.80;8.73;;;14.00;46.20;;;;;;7357471;19;20046;-68
2022/10/29 01:07:34;;;;;;;18.33;8.93;;;14.00;46.20;;;;;;7357352;19;20086;-68
2022/10/29 01:10:07;;;;;;;22.75;8.25;;;14.10;45.70;;;;;;7380837;19;20018;-68
2022/10/29 01:12:54;;;;;;;22.50;8.25;;;14.00;44.80;;;;;;7357521;19;20118;-68
2022/10/29 01:15:31;;;;;;;14.93;7.18;;;14.00;44.50;;;;;;7356685;19;20007;-69
2022/10/29 01:18:12;;;;;;;13.30;6.95;;;13.90;44.90;;;;;;7357019;19;20014;-68
2022/10/29 01:21:15;;;;;;;21.58;8.02;;;13.90;44.80;;;;;;7353836;19;20014;-68
2022/10/29 01:24:24;;;;;;;16.67;7.90;;;13.90;44.90;;;;;;7360958;19;20006;-68
2022/10/29 01:27:27;;;;;;;18.13;7.63;;;13.90;45.30;;;;;;7353242;19;20021;-68
2022/10/29 01:30:09;;;;;;;17.83;7.57;;;13.90;44.70;;;;;;7358351;19;20057;-68
2022/10/29 01:32:53;;;;;;;16.25;7.72;;;14.00;44.60;;;;;;7357814;19;20085;-68
2022/10/29 01:35:31;;;;;;;20.90;7.68;;;14.10;42.70;;;;;;7355662;19;20371;-68
2022/10/29 01:38:12;;;;;;;21.88;7.13;;;14.20;41.40;;;;;;7357574;19;20431;-68
2022/10/29 01:40:51;;;;;;;16.33;7.30;;;14.30;39.90;;;;;;7354855;19;20011;-68
2022/10/29 01:43:27;;;;;;;18.88;7.20;;;14.30;38.80;;;;;;7360682;19;20014;-68
2022/10/29 01:46:03;;;;;;;17.70;7.25;;;14.30;38.30;;;;;;7377998;19;20038;-68
2022/10/29 01:48:39;;;;;;;17.15;8.05;;;14.20;37.40;;;;;;7359400;19;20021;-68
2022/10/29 01:51:15;;;;;;;21.17;8.30;;;14.30;37.40;;;;;;7361259;19;20768;-68
2022/10/29 01:53:45;;;;;;;14.25;7.80;;;14.30;36.70;;;;;;7367983;19;20095;-68
2022/10/29 01:56:14;;;;;;;25.65;8.55;;;14.20;36.70;;;;;;7362572;19;20010;-68
2022/10/29 01:58:49;;;;;;;19.05;7.97;;;14.20;36.80;;;;;;7365367;19;20010;-68
2022/10/29 02:01:38;;;;;;;16.17;7.30;;;14.10;38.10;;;;;;7361558;19;20029;-68
2022/10/29 02:04:31;;;;;;;15.65;7.45;;;14.10;38.40;;;;;;7388566;19;20018;-68
2022/10/29 02:07:28;;;;;;;16.80;7.47;;;14.00;39.60;;;;;;7260431;19;2004364;-68
2022/10/29 02:10:26;;;;;;;23.40;8.05;;;13.90;40.40;;;;;;7367342;19;20023;-68
2022/10/29 02:13:17;;;;;;;14.63;7.68;;;13.90;41.10;;;;;;7390067;19;20021;-67
2022/10/29 02:16:09;;;;;;;14.82;7.55;;;14.00;40.80;;;;;;7362250;19;20017;-67
2022/10/29 02:18:57;;;;;;;16.45;7.90;;;13.90;40.90;;;;;;7364653;19;20014;-67
2022/10/29 02:21:48;;;;;;;12.98;7.65;;;13.90;41.60;;;;;;7362867;19;20021;-67
2022/10/29 02:24:36;;;;;;;14.70;7.50;;;13.90;41.70;;;;;;7361960;19;20013;-67
2022/10/29 02:27:25;;;;;;;18.95;7.70;;;14.00;40.60;;;;;;7362164;19;20079;-67
2022/10/29 02:30:14;;;;;;;17.48;7.93;;;14.00;38.50;;;;;;7365033;19;20017;-67
2022/10/29 02:33:02;;;;;;;14.85;7.57;;;14.10;37.90;;;;;;7363947;19;20570;-67
2022/10/29 02:35:51;;;;;;;18.42;7.47;;;14.00;36.40;;;;;;7362307;19;20021;-68
2022/10/29 02:38:42;;;;;;;12.25;6.82;;;14.00;37.40;;;;;;7364711;19;20026;-67
2022/10/29 02:41:30;;;;;;;18.80;7.60;;;14.00;36.50;;;;;;7360864;19;20029;-67
2022/10/29 02:44:18;;;;;;;14.27;7.40;;;14.00;36.30;;;;;;7366530;19;20014;-67
2022/10/29 02:47:07;;;;;;;17.67;7.30;;;14.00;36.70;;;;;;7361989;19;20103;-67
2022/10/29 02:49:55;;;;;;;15.43;7.75;;;14.00;36.80;;;;;;7365442;19;20016;-67
2022/10/29 02:52:44;;;;;;;15.75;7.72;;;14.00;36.80;;;;;;7363046;19;20030;-67
2022/10/29 02:55:34;;;;;;;13.85;7.85;;;13.90;37.40;;;;;;7361689;19;20110;-66
2022/10/29 02:58:22;;;;;;;17.85;7.25;;;13.90;37.70;;;;;;7362696;19;20024;-67
2022/10/29 03:01:11;;;;;;;18.27;8.63;;;13.90;38.10;;;;;;7382239;19;20045;-67
2022/10/29 03:04:00;;;;;;;14.85;7.97;;;13.90;37.30;;;;;;7364943;19;20031;-67
2022/10/29 03:06:49;;;;;;;16.25;7.88;;;13.80;37.50;;;;;;7359744;19;20592;-67
2022/10/29 03:09:37;;;;;;;16.63;7.30;;;13.80;38.20;;;;;;7362301;19;20533;-67
2022/10/29 03:12:10;;;;;;;20.73;8.25;;;13.80;38.50;;;;;;7360702;19;20007;-67
2022/10/29 03:14:40;;;;;;;19.58;8.30;;;13.80;38.40;;;;;;7360238;19;20034;-67
2022/10/29 03:17:09;;;;;;;14.30;7.25;;;13.80;38.20;;;;;;7359935;19;20034;-67
2022/10/29 03:19:39;;;;;;;13.98;7.43;;;13.80;37.80;;;;;;7362770;19;20026;-67
2022/10/29 03:22:09;;;;;;;14.68;7.90;;;13.80;37.80;;;;;;7382233;19;20019;-67
2022/10/29 03:24:39;;;;;;;16.73;7.40;;;13.70;37.90;;;;;;7358892;19;20077;-67
2022/10/29 03:27:11;;;;;;;16.80;8.00;;;13.70;37.60;;;;;;7359182;19;20017;-67
2022/10/29 03:29:41;;;;;;;14.60;7.90;;;13.70;37.60;;;;;;7361446;19;20653;-67
2022/10/29 03:32:10;;;;;;;12.85;6.90;;;13.70;38.10;;;;;;7360049;19;20466;-68
2022/10/29 03:34:40;;;;;;;12.10;7.68;;;13.80;37.40;;;;;;7360388;19;20044;-68
2022/10/29 03:37:10;;;;;;;16.27;7.47;;;13.80;36.80;;;;;;7382105;19;20485;-67
2022/10/29 03:39:40;;;;;;;14.93;7.50;;;13.80;37.20;;;;;;7361869;19;20374;-68
2022/10/29 03:42:12;;;;;;;17.60;7.55;;;13.80;37.00;;;;;;7360861;19;20014;-68
2022/10/29 03:44:42;;;;;;;15.27;7.35;;;13.90;36.20;;;;;;7358840;19;20083;-67
2022/10/29 03:47:11;;;;;;;15.68;7.63;;;13.90;36.20;;;;;;7360481;19;20010;-68
2022/10/29 03:49:41;;;;;;;15.00;7.63;;;14.00;33.80;;;;;;7362516;19;20105;-67
2022/10/29 03:52:11;;;;;;;17.67;7.63;;;14.10;32.70;;;;;;7382908;19;20014;-67
2022/10/29 03:54:41;;;;;;;14.75;8.00;;;14.00;33.00;;;;;;7359077;19;20030;-67
2022/10/29 03:57:13;;;;;;;14.50;7.03;;;14.00;32.60;;;;;;7359433;19;20006;-67
2022/10/29 03:59:43;;;;;;;15.32;7.38;;;14.00;33.20;;;;;;7360404;19;20018;-67
2022/10/29 04:02:17;;;;;;;13.30;7.47;;;14.00;33.60;;;;;;7358984;19;20015;-67
2022/10/29 04:04:47;;;;;;;14.27;7.80;;;14.00;34.20;;;;;;7359187;19;20642;-67
2022/10/29 04:07:17;;;;;;;20.25;7.35;;;14.00;33.90;;;;;;7359269;19;20014;-68
2022/10/29 04:09:47;;;;;;;12.32;6.57;;;14.00;34.50;;;;;;7381975;19;20478;-67
2022/10/29 04:12:19;;;;;;;14.05;6.90;;;13.90;35.00;;;;;;7358809;19;20553;-67
2022/10/29 04:14:49;;;;;;;13.48;6.70;;;13.90;35.60;;;;;;7360831;19;20909;-67
2022/10/29 04:17:19;;;;;;;17.13;6.47;;;14.00;34.00;;;;;;7360584;19;20074;-67
2022/10/29 04:19:49;;;;;;;14.95;6.78;;;14.00;33.30;;;;;;7360260;19;20039;-67
2022/10/29 04:22:19;;;;;;;15.43;6.72;;;14.00;33.70;;;;;;7359512;19;20021;-67
2022/10/29 04:25:10;;;;;;;17.02;7.25;;;14.00;33.70;;;;;;7380151;19;20467;-67
2022/10/29 04:28:02;;;;;;;18.33;6.50;;;14.00;32.60;;;;;;7360690;19;20048;-67
2022/10/29 04:30:53;;;;;;;21.85;7.70;;;14.10;32.00;;;;;;7360002;19;20028;-67
2022/10/29 04:33:22;;;;;;;13.70;6.65;;;14.00;31.50;;;;;;7358498;19;20374;-67
2022/10/29 04:35:56;;;;;;;14.48;6.53;;;14.00;31.20;;;;;;7358237;19;20019;-67
2022/10/29 04:38:25;;;;;;;18.33;6.60;;;14.10;31.00;;;;;;7362008;19;20010;-67
2022/10/29 04:40:58;;;;;;;17.05;6.65;;;14.00;30.40;;;;;;7360983;19;20014;-67
2022/10/29 04:43:32;;;;;;;9.82;6.13;;;14.00;30.60;;;;;;7358359;19;20014;-67
2022/10/29 04:46:01;;;;;;;14.23;6.57;;;13.90;31.30;;;;;;7378512;19;20467;-67
2022/10/29 04:48:31;;;;;;;14.82;6.63;;;13.80;32.80;;;;;;7361025;19;20889;-67
2022/10/29 04:51:01;;;;;;;15.70;7.43;;;13.70;33.40;;;;;;7359717;19;20126;-67
2022/10/29 04:53:31;;;;;;;13.98;6.32;;;13.70;33.80;;;;;;7357693;19;20018;-67
2022/10/29 04:56:04;;;;;;;12.55;7.25;;;13.70;34.80;;;;;;7357314;19;20434;-67
2022/10/29 04:58:36;;;;;;;22.45;7.22;;;13.60;35.50;;;;;;7359956;19;20014;-67
2022/10/29 05:01:07;;;;;;;15.23;6.85;;;13.60;35.90;;;;;;7381029;19;20471;-67
2022/10/29 05:03:37;;;;;;;9.88;6.10;;;13.50;35.60;;;;;;7358332;19;20573;-67
2022/10/29 05:06:08;;;;;;;15.43;6.35;;;13.40;35.80;;;;;;7357875;19;20015;-67
2022/10/29 05:08:38;;;;;;;11.73;6.70;;;13.30;36.50;;;;;;7360588;19;20014;-67
2022/10/29 05:11:08;;;;;;;13.20;7.10;;;13.20;37.90;;;;;;7357395;19;20010;-67
2022/10/29 05:13:41;;;;;;;15.82;6.93;;;13.10;38.10;;;;;;7357659;19;20011;-67
2022/10/29 05:16:10;;;;;;;12.60;6.75;;;13.10;38.80;;;;;;7377212;19;20524;-67
2022/10/29 05:18:40;;;;;;;14.70;6.68;;;13.10;39.90;;;;;;7357995;19;20006;-67
2022/10/29 05:21:10;;;;;;;12.32;6.85;;;13.00;40.40;;;;;;7356494;19;20010;-67
2022/10/29 05:23:40;;;;;;;9.95;6.35;;;13.00;41.20;;;;;;7359850;19;20386;-67
2022/10/29 05:26:09;;;;;;;14.07;6.57;;;13.00;40.60;;;;;;7361666;19;20011;-67
2022/10/29 05:28:42;;;;;;;14.32;6.97;;;13.00;41.10;;;;;;7365465;19;20014;-67
2022/10/29 05:31:11;;;;;;;15.93;7.72;;;13.00;40.90;;;;;;7385443;19;20030;-68
2022/10/29 05:33:41;;;;;;;21.50;7.18;;;13.00;41.50;;;;;;7367768;19;20446;-67
2022/10/29 05:36:11;;;;;;;18.80;7.20;;;13.00;41.80;;;;;;7363287;19;20493;-67
2022/10/29 05:38:41;;;;;;;13.38;6.82;;;13.10;41.80;;;;;;7364925;19;20011;-67
2022/10/29 05:41:11;;;;;;;16.48;7.50;;;13.00;41.00;;;;;;7364326;19;20481;-66
2022/10/29 05:43:43;;;;;;;12.07;6.38;;;12.80;40.80;;;;;;7364255;19;20015;-67
2022/10/29 05:46:13;;;;;;;13.88;6.13;;;12.60;41.20;;;;;;7384467;19;20056;-67
2022/10/29 05:48:46;;;;;;;10.23;6.15;;;12.50;42.00;;;;;;7365018;19;20014;-67
2022/10/29 05:51:15;;;;;;;14.20;5.93;;;12.50;43.00;;;;;;7362008;19;20513;-67
2022/10/29 05:53:45;;;;;;;13.88;6.70;;;12.50;43.50;;;;;;7366312;19;20600;-66
2022/10/29 05:56:15;;;;;;;11.68;6.68;;;12.50;43.70;;;;;;7363791;19;20018;-67
2022/10/29 05:58:50;;;;;;;14.52;6.80;;;12.50;45.40;;;;;;7365469;19;20390;-67
2022/10/29 06:01:20;;;;;;;14.07;6.68;;;12.60;45.00;;;;;;7359161;19;20021;-68
2022/10/29 06:03:50;;;;;;;13.27;6.88;;;12.50;44.10;;;;;;7387004;19;20077;-66
2022/10/29 06:06:21;;;;;;;20.55;7.50;;;12.50;45.10;;;;;;7361436;19;20079;-67
2022/10/29 06:08:51;;;;;;;19.27;8.10;;;12.60;45.70;;;;;;7363284;19;20015;-67
2022/10/29 06:11:21;;;;;;;15.75;6.78;;;12.60;45.80;;;;;;7358726;19;20075;-67
2022/10/29 06:13:56;;;;;;;11.00;6.45;;;12.70;45.20;;;;;;7366789;19;20501;-67
2022/10/29 06:16:26;;;;;;;14.90;6.82;;;12.70;44.60;;;;;;7362031;19;20038;-67
2022/10/29 06:18:55;;;;;;;13.27;7.05;;;12.70;43.70;;;;;;7383320;19;20010;-67
2022/10/29 06:21:25;;;;;;;12.65;7.05;;;12.70;43.70;;;;;;7357747;19;20034;-67
2022/10/29 06:23:55;;;;;;;16.58;7.30;;;12.80;44.00;;;;;;7362104;19;20507;-67
2022/10/29 06:26:25;;;;;;;12.98;6.25;;;12.80;43.70;;;;;;7359330;19;20486;-69
2022/10/29 06:28:57;;;;;;;15.50;7.15;;;12.80;43.50;;;;;;7363564;19;21238;-68
2022/10/29 06:31:27;;;;;;;18.35;7.22;;;12.80;43.50;;;;;;7355733;19;20014;-69
2022/10/29 06:33:57;;;;;;;14.27;6.57;;;12.90;42.60;;;;;;7384501;19;20018;-68
2022/10/29 06:36:27;;;;;;;13.90;7.07;;;13.00;41.40;;;;;;7356864;19;20015;-67
2022/10/29 06:38:57;;;;;;;15.15;7.30;;;13.00;40.50;;;;;;7360245;19;20022;-67
2022/10/29 06:41:27;;;;;;;16.15;6.85;;;13.00;39.90;;;;;;7354993;19;20019;-67
2022/10/29 06:43:59;;;;;;;16.88;6.82;;;13.00;39.70;;;;;;7362710;19;20018;-67
2022/10/29 06:46:29;;;;;;;16.23;7.60;;;13.10;39.70;;;;;;7356733;19;20040;-68
2022/10/29 06:48:59;;;;;;;13.93;6.90;;;13.10;39.60;;;;;;7383947;19;20339;-69
2022/10/29 06:51:29;;;;;;;14.65;6.53;;;13.10;39.20;;;;;;7353812;19;20017;-69
2022/10/29 06:53:59;;;;;;;18.30;6.70;;;13.20;39.50;;;;;;7362784;19;20013;-68
2022/10/29 06:56:30;;;;;;;15.80;7.05;;;13.20;39.00;;;;;;7356916;19;20022;-68
2022/10/29 06:59:02;;;;;;;17.88;7.28;;;13.20;37.80;;;;;;7361610;19;20014;-66
2022/10/29 07:01:32;;;;;;;12.70;6.32;;;13.30;37.50;;;;;;7355689;19;20038;-68
2022/10/29 07:04:02;;;;;;;16.15;7.28;;;13.30;37.00;;;;;;7384632;19;20580;-68
2022/10/29 07:06:34;;;;;;;21.88;7.28;;;13.40;36.40;;;;;;7357930;19;20037;-68
2022/10/29 07:09:04;;;;;;;15.10;7.05;;;13.40;35.80;;;;;;7361757;19;20010;-68
2022/10/29 07:11:34;;;;;;;15.00;6.68;;;13.50;34.30;;;;;;7355593;19;20046;-67
2022/10/29 07:14:08;;;;;;;15.50;6.68;;;13.60;31.80;;;;;;7362207;19;20057;-67
2022/10/29 07:16:38;;;;;;;16.90;7.28;;;13.70;29.70;;;;;;7219834;19;2710215;-67
2022/10/29 07:19:08;;;;;;;13.73;6.47;;;13.80;28.60;;;;;;7385779;19;20479;-68
2022/10/29 07:21:38;;;;;;;14.35;7.07;;;13.90;27.20;;;;;;7356577;19;20011;-68
2022/10/29 07:24:11;;;;;;;15.18;6.90;;;13.90;26.80;;;;;;7363922;19;20070;-68
2022/10/29 07:26:41;;;;;;;17.67;7.13;;;13.90;26.40;;;;;;7358795;19;20018;-67
2022/10/29 07:29:13;;;;;;;14.88;6.63;;;14.00;25.80;;;;;;7363676;19;20251;-67
2022/10/29 07:31:43;;;;;;;13.82;6.45;;;14.10;24.80;;;;;;7358679;19;20046;-66
2022/10/29 07:34:13;;;;;;;16.40;6.82;;;14.20;24.60;;;;;;7386480;19;20010;-67
2022/10/29 07:36:43;;;;;;;16.17;6.82;;;14.20;24.20;;;;;;7358682;19;20045;-68
2022/10/29 07:39:13;;;;;;;22.50;7.32;;;14.30;23.40;;;;;;7362124;19;20514;-68
2022/10/29 07:41:43;;;;;;;14.63;6.28;;;14.40;21.70;;;;;;7357856;19;20011;-67
2022/10/29 07:44:15;;;;;;;13.00;6.40;;;14.50;21.10;;;;;;7361780;19;20501;-67
2022/10/29 07:46:45;;;;;;;10.80;6.85;;;14.50;21.30;;;;;;7357743;19;20032;-67
2022/10/29 07:49:14;;;;;;;14.98;6.50;;;14.60;21.00;;;;;;7385565;19;20022;-67
2022/10/29 07:51:44;;;;;;;13.82;6.53;;;14.60;19.30;;;;;;7354695;19;20354;-67
2022/10/29 07:54:14;;;;;;;16.45;6.18;;;14.70;19.30;;;;;;7362403;19;20014;-67
2022/10/29 07:56:44;;;;;;;16.25;6.00;;;14.80;18.30;;;;;;7359316;19;20014;-67
2022/10/29 07:59:19;;;;;;;16.90;7.65;;;14.90;17.30;;;;;;7361421;19;20051;-67
2022/10/29 08:01:49;;;;;;;14.95;6.13;;;14.90;16.50;;;;;;7358206;19;20014;-67
2022/10/29 08:04:19;;;;;;;13.25;6.85;;;14.80;15.30;;;;;;7362317;19;20753;-68
2022/10/29 08:06:48;;;;;;;11.55;6.55;;;14.80;17.00;;;;;;7379718;19;20038;-68
2022/10/29 08:09:18;;;;;;;14.63;6.20;;;14.90;18.20;;;;;;7361059;19;20010;-68
2022/10/29 08:11:48;;;;;;;22.35;6.88;;;14.90;17.00;;;;;;7357703;19;20010;-68
2022/10/29 08:14:20;;;;;;;15.00;6.72;;;15.00;16.10;;;;;;7361124;19;20019;-67
2022/10/29 08:16:51;;;;;;;14.80;6.30;;;15.00;15.80;;;;;;7360226;19;20774;-68
2022/10/29 08:19:21;;;;;;;13.23;5.88;;;15.10;16.00;;;;;;7361399;19;20018;-68
2022/10/29 08:21:50;;;;;;;16.25;6.68;;;15.20;14.50;;;;;;7377870;19;20339;-68
2022/10/29 08:24:20;;;;;;;11.05;6.32;;;15.30;12.60;;;;;;7359898;19;20034;-66
2022/10/29 08:26:51;;;;;;;14.23;5.85;;;15.30;11.40;;;;;;7357681;19;20025;-66
2022/10/29 08:29:23;;;;;;;18.60;6.43;;;15.50;11.50;;;;;;7361188;19;20597;-66
2022/10/29 08:31:53;;;;;;;16.10;5.85;;;15.60;10.60;;;;;;7356889;19;20030;-68
2022/10/29 08:34:23;;;;;;;12.65;6.15;;;15.70;9.10;;;;;;7360701;19;20011;-68
2022/10/29 08:36:53;;;;;;;14.68;5.15;;;15.80;8.00;;;;;;7379827;19;20019;-66
2022/10/29 08:39:23;;;;;;;12.15;5.78;;;15.90;6.80;;;;;;7359493;19;20374;-68
2022/10/29 08:42:03;;;;;;;11.02;5.32;;;16.00;6.70;;;;;;7355382;19;20046;-69
2022/10/29 08:44:57;;;;;;;11.48;5.75;;;16.10;5.30;;;;;;7358808;19;20153;-67
2022/10/29 08:47:27;;;;;;;15.93;6.07;;;16.00;4.50;;;;;;7360506;19;20011;-67
2022/10/29 08:50:05;;;;;;;13.10;6.22;;;16.10;4.50;;;;;;7358329;19;20050;-66
2022/10/29 08:52:40;;;;;;;25.23;6.90;;;16.20;5.20;;;;;;7355680;19;20030;-67
2022/10/29 08:55:31;;;;;;;15.35;6.03;;;16.30;3.80;;;;;;7357018;19;20473;-66
2022/10/29 08:58:14;;;;;;;17.05;5.93;;;16.40;3.80;;;;;;7378799;19;20030;-67
2022/10/29 09:00:50;;;;;;;13.85;5.43;;;16.40;3.00;;;;;;7359326;19;20014;-68
2022/10/29 09:03:20;;;;;;;16.33;6.20;;;16.50;3.20;;;;;;7355730;19;20529;-67
2022/10/29 09:05:57;;;;;;;12.18;6.20;;;16.50;3.10;;;;;;7356305;19;20174;-68
2022/10/29 09:08:36;;;;;;;12.20;5.70;;;16.40;3.30;;;;;;7359893;19;20015;-68
2022/10/29 09:11:17;;;;;;;17.23;5.72;;;16.50;3.60;;;;;;7358624;19;20395;-68
2022/10/29 09:13:54;;;;;;;12.88;5.63;;;16.60;3.40;;;;;;7358224;19;20021;-68
2022/10/29 09:16:41;;;;;;;13.57;6.10;;;16.80;2.70;;;;;;7354097;19;20049;-68
2022/10/29 09:19:29;;;;;;;15.40;6.13;;;17.00;1.60;;;;;;7382063;19;20034;-68
2022/10/29 09:22:12;;;;;;;14.25;5.80;;;17.10;1.00;;;;;;7354024;19;20007;-67
2022/10/29 09:24:48;;;;;;;13.10;5.82;;;17.20;1.00;;;;;;7356258;19;20010;-68
2022/10/29 09:27:23;;;;;;;14.73;6.13;;;17.50;1.00;;;;;;7356341;19;20474;-68
2022/10/29 09:30:05;;;;;;;15.23;6.28;;;17.60;1.00;;;;;;7360386;19;20015;-68
2022/10/29 09:32:42;;;;;;;12.77;5.70;;;17.80;1.00;;;;;;7354647;19;20371;-68
2022/10/29 09:35:15;;;;;;;12.98;6.35;;;17.80;1.00;;;;;;7355515;19;20010;-68
2022/10/29 09:37:50;;;;;;;13.93;5.72;;;18.00;1.00;;;;;;7357537;19;20018;-68
2022/10/29 09:40:32;;;;;;;16.55;5.93;;;18.10;1.00;;;;;;7359411;19;20011;-68
2022/10/29 09:43:07;;;;;;;15.27;5.78;;;18.20;1.00;;;;;;7375502;19;20015;-68
2022/10/29 09:45:52;;;;;;;14.65;5.93;;;18.40;1.00;;;;;;7355744;19;20038;-67
2022/10/29 09:48:31;;;;;;;13.35;4.82;;;18.50;1.00;;;;;;7357724;19;20011;-68
2022/10/29 09:51:11;;;;;;;14.43;5.65;;;18.60;1.00;;;;;;7355728;19;20022;-68
2022/10/29 09:53:41;;;;;;;11.40;5.32;;;18.80;1.00;;;;;;7357744;19;20506;-68
2022/10/29 09:56:11;;;;;;;14.85;6.13;;;19.00;1.00;;;;;;7354694;19;20522;-68
2022/10/29 09:58:46;;;;;;;10.65;4.97;;;19.10;1.00;;;;;;7359510;19;20086;-68
2022/10/29 10:01:16;;;;;;;11.15;6.18;;;19.20;1.00;;;;;;7366624;19;20006;-68
2022/10/29 10:03:55;;;;;;;12.40;5.90;;;19.40;1.00;;;;;;7378401;19;20025;-66
2022/10/29 10:06:25;;;;;;;14.63;5.15;;;19.50;1.00;;;;;;7354254;19;20011;-67
2022/10/29 10:09:03;;;;;;;14.65;5.25;;;19.60;1.00;;;;;;7358484;19;20018;-66
2022/10/29 10:11:39;;;;;;;13.13;5.25;;;19.70;1.00;;;;;;7362381;19;20006;-67
2022/10/29 10:14:19;;;;;;;11.00;5.05;;;19.80;1.00;;;;;;7366261;19;20469;-67
2022/10/29 10:16:57;;;;;;;11.32;4.35;;;19.90;1.00;;;;;;7359820;19;20104;-67
2022/10/29 10:19:32;;;;;;;14.85;4.78;;;20.00;1.00;;;;;;7364519;19;20014;-67
2022/10/29 10:22:04;;;;;;;15.82;5.05;;;20.10;1.00;;;;;;7380374;19;20014;-67
2022/10/29 10:24:35;;;;;;;14.90;5.10;;;20.10;1.00;;;;;;7361970;19;20032;-67
2022/10/29 10:27:27;;;;;;;11.70;4.97;;;20.10;1.00;;;;;;7362931;19;20038;-67
2022/10/29 10:30:14;;;;;;;10.52;5.00;;;20.30;1.00;;;;;;7365027;19;20034;-67
2022/10/29 10:32:44;;;;;;;15.65;5.03;;;20.40;1.00;;;;;;7359594;19;20426;-68
2022/10/29 10:35:36;;;;;;;13.35;4.45;;;20.50;1.00;;;;;;7360590;19;20625;-67
2022/10/29 10:38:10;;;;;;;17.38;5.40;;;20.60;1.00;;;;;;7362890;19;20017;-67
2022/10/29 10:40:40;;;;;;;13.98;5.28;;;20.70;1.00;;;;;;7362059;19;20832;-68
2022/10/29 10:43:21;;;;;;;10.48;4.15;;;20.70;1.00;;;;;;7381409;19;20355;-68
2022/10/29 10:45:56;;;;;;;13.80;5.18;;;20.80;1.00;;;;;;7361052;19;20011;-68
2022/10/29 10:48:28;;;;;;;12.10;4.93;;;20.90;1.00;;;;;;7362070;19;20090;-68
2022/10/29 10:51:24;;;;;;;15.80;4.88;;;21.00;1.00;;;;;;7364209;19;20010;-68
2022/10/29 10:53:54;;;;;;;10.07;4.72;;;21.10;1.00;;;;;;7362841;19;20030;-68
2022/10/29 10:56:26;;;;;;;11.43;4.90;;;21.00;1.00;;;;;;7359271;19;20085;-68
2022/10/29 10:59:04;;;;;;;16.42;4.93;;;21.10;1.00;;;;;;7363380;19;20022;-67
2022/10/29 11:01:38;;;;;;;13.48;4.82;;;21.20;1.00;;;;;;7360257;19;20034;-68
2022/10/29 11:04:18;;;;;;;10.98;4.40;;;21.20;1.00;;;;;;7383758;19;20470;-68
2022/10/29 11:06:54;;;;;;;14.30;4.50;;;21.30;1.00;;;;;;7359764;19;20058;-68
2022/10/29 11:09:30;;;;;;;14.70;4.88;;;21.40;1.00;;;;;;7364358;19;20037;-68
2022/10/29 11:12:04;;;;;;;13.18;4.97;;;21.40;1.00;;;;;;7358177;19;20030;-68
2022/10/29 11:14:36;;;;;;;14.63;4.40;;;21.60;1.00;;;;;;7360066;19;20010;-68
2022/10/29 11:17:18;;;;;;;11.20;4.50;;;21.60;1.00;;;;;;7362953;19;20006;-68
2022/10/29 11:19:51;;;;;;;12.65;4.75;;;21.60;1.00;;;;;;7362205;19;20015;-68
2022/10/29 11:22:27;;;;;;;12.73;4.72;;;21.70;1.00;;;;;;7353834;19;20010;-68
2022/10/29 11:25:02;;;;;;;15.18;4.90;;;21.80;1.00;;;;;;7381978;19;20014;-68
2022/10/29 11:27:40;;;;;;;10.70;4.35;;;21.80;1.00;;;;;;7361294;19;20014;-68
2022/10/29 11:30:13;;;;;;;16.92;4.90;;;21.80;1.00;;;;;;7360825;19;20554;-68
2022/10/29 11:32:57;;;;;;;10.00;4.22;;;21.90;1.00;;;;;;7357740;19;20014;-68
2022/10/29 11:35:39;;;;;;;13.88;4.07;;;22.10;1.00;;;;;;7360113;19;20030;-68
2022/10/29 11:38:17;;;;;;;11.73;4.30;;;22.10;1.00;;;;;;7361542;19;20010;-68
2022/10/29 11:40:52;;;;;;;14.65;4.53;;;22.20;1.00;;;;;;7362059;19;20014;-68
2022/10/29 11:43:23;;;;;;;12.95;4.30;;;22.10;1.00;;;;;;7355967;19;20040;-68
2022/10/29 11:46:00;;;;;;;17.48;4.72;;;22.10;1.00;;;;;;7381308;19;20022;-68
2022/10/29 11:48:43;;;;;;;17.67;4.97;;;22.20;1.00;;;;;;7361115;19;20505;-68
2022/10/29 11:51:23;;;;;;;9.07;4.22;;;22.40;1.00;;;;;;7360246;19;20469;-68
2022/10/29 11:54:01;;;;;;;13.27;4.18;;;22.40;1.00;;;;;;7360309;19;20006;-68
2022/10/29 11:56:53;;;;;;;8.20;3.45;;;22.40;1.00;;;;;;7357378;19;20052;-68
2022/10/29 11:59:33;;;;;;;13.93;3.85;;;22.50;1.00;;;;;;7361406;19;20014;-68
2022/10/29 12:02:20;;;;;;;14.93;4.63;;;22.50;1.00;;;;;;7357339;19;20013;-68
2022/10/29 12:04:59;;;;;;;12.70;4.20;;;22.50;1.00;;;;;;7359766;19;20014;-68
2022/10/29 12:07:43;;;;;;;10.50;4.40;;;22.70;1.00;;;;;;7361187;19;20100;-68
2022/10/29 12:10:45;;;;;;;13.23;5.27;;;22.70;1.00;;;;;;7384451;19;20018;-68
2022/10/29 12:13:27;;;;;;;13.18;4.25;;;22.70;1.00;;;;;;7254739;19;2004268;-68
2022/10/29 12:16:09;;;;;;;15.13;4.45;;;22.70;1.00;;;;;;7381543;19;20010;-68
2022/10/29 12:18:48;;;;;;;10.52;4.00;;;22.80;1.00;;;;;;7359388;19;20014;-68
2022/10/29 12:21:27;;;;;;;11.07;4.22;;;23.00;1.00;;;;;;7358749;19;20006;-68
2022/10/29 12:24:08;;;;;;;8.45;4.22;;;23.10;1.00;;;;;;7357583;19;20006;-68
2022/10/29 12:26:47;;;;;;;10.98;3.90;;;23.10;1.00;;;;;;7354024;19;20018;-68
2022/10/29 12:29:22;;;;;;;8.57;3.97;;;23.10;1.00;;;;;;7360775;19;20025;-68
2022/10/29 12:31:58;;;;;;;12.88;3.97;;;23.10;1.00;;;;;;7354168;19;20011;-67
2022/10/29 12:34:33;;;;;;;10.45;3.60;;;23.20;1.00;;;;;;7359666;19;20514;-67
2022/10/29 12:37:11;;;;;;;12.55;3.95;;;23.30;1.00;;;;;;7381230;19;20056;-67
2022/10/29 12:39:46;;;;;;;8.38;3.55;;;23.20;1.00;;;;;;7359732;19;20025;-68
2022/10/29 12:42:24;;;;;;;13.43;4.20;;;23.20;1.00;;;;;;7351960;19;20453;-68
2022/10/29 12:45:05;;;;;;;11.55;4.85;;;23.30;1.00;;;;;;7357710;19;20015;-67
2022/10/29 12:47:39;;;;;;;15.88;4.05;;;23.10;1.00;;;;;;7355745;19;20038;-68
2022/10/29 12:50:25;;;;;;;11.80;4.05;;;23.20;1.00;;;;;;7355610;19;20014;-67
2022/10/29 12:53:04;;;;;;;9.35;3.45;;;23.20;1.00;;;;;;7352897;19;20010;-68
2022/10/29 12:55:35;;;;;;;11.95;4.07;;;23.20;1.00;;;;;;7354532;19;20466;-68
2022/10/29 12:58:35;;;;;;;9.32;4.10;;;23.30;1.00;;;;;;7377454;19;20475;-68
2022/10/29 13:01:08;;;;;;;11.57;4.35;;;23.40;1.00;;;;;;7357688;19;20585;-68
2022/10/29 13:04:10;;;;;;;11.32;3.97;;;23.40;1.00;;;;;;7353800;19;20102;-68
2022/10/29 13:06:51;;;;;;;10.55;3.72;;;23.40;1.00;;;;;;7354281;19;20359;-67
2022/10/29 13:09:23;;;;;;;17.92;4.45;;;23.40;1.00;;;;;;7358390;19;20018;-67
2022/10/29 13:11:55;;;;;;;10.55;4.88;;;23.40;1.00;;;;;;7352706;19;20018;-67
2022/10/29 13:14:29;;;;;;;11.20;4.55;;;23.30;1.00;;;;;;7360891;19;20454;-67
2022/10/29 13:17:04;;;;;;;11.20;4.38;;;23.40;1.00;;;;;;7358486;19;20019;-67
2022/10/29 13:19:51;;;;;;;11.88;4.07;;;23.30;1.00;;;;;;7359479;19;20018;-67
2022/10/29 13:22:51;;;;;;;13.48;4.00;;;23.30;1.00;;;;;;7352113;19;20014;-69
2022/10/29 13:25:51;;;;;;;11.23;4.18;;;23.30;1.00;;;;;;7355184;19;20370;-69